sensor_id;sensor_type;location;lat;lon;timestamp;P1;durP1;ratioP1;P2;durP2;ratioP2
29500;SDS011;16450;50.288;10.966;2022-12-08T00:00:26;16.43;;;10.40;;
29500;SDS011;16450;50.288;10.966;2022-12-08T00:03:26;16.70;;;10.20;;
29500;SDS011;16450;50.288;10.966;2022-12-08T00:06:28;14.37;;;8.70;;
29500;SDS011;16450;50.288;10.966;2022-12-08T00:09:50;15.37;;;10.40;;
29500;SDS011;16450;50.288;10.966;2022-12-08T00:12:50;16.63;;;10.03;;
29500;SDS011;16450;50.288;10.966;2022-12-08T00:15:51;20.37;;;10.80;;
29500;SDS011;16450;50.288;10.966;2022-12-08T00:18:51;16.23;;;10.27;;
29500;SDS011;16450;50.288;10.966;2022-12-08T00:21:52;18.90;;;10.70;;
29500;SDS011;16450;50.288;10.966;2022-12-08T00:24:53;20.67;;;11.43;;
29500;SDS011;16450;50.288;10.966;2022-12-08T00:27:54;19.80;;;12.13;;
29500;SDS011;16450;50.288;10.966;2022-12-08T00:30:54;19.43;;;12.13;;
29500;SDS011;16450;50.288;10.966;2022-12-08T00:33:55;20.17;;;11.73;;
29500;SDS011;16450;50.288;10.966;2022-12-08T00:36:56;19.40;;;11.37;;
29500;SDS011;16450;50.288;10.966;2022-12-08T00:39:57;20.17;;;12.60;;
29500;SDS011;16450;50.288;10.966;2022-12-08T00:42:58;19.47;;;12.40;;
29500;SDS011;16450;50.288;10.966;2022-12-08T00:45:58;23.00;;;12.53;;
29500;SDS011;16450;50.288;10.966;2022-12-08T00:48:59;19.57;;;11.67;;
29500;SDS011;16450;50.288;10.966;2022-12-08T00:52:00;18.87;;;12.27;;
29500;SDS011;16450;50.288;10.966;2022-12-08T00:55:00;21.97;;;12.20;;
29500;SDS011;16450;50.288;10.966;2022-12-08T00:58:01;20.73;;;13.13;;
29500;SDS011;16450;50.288;10.966;2022-12-08T01:01:08;19.37;;;11.00;;
29500;SDS011;16450;50.288;10.966;2022-12-08T01:04:14;23.33;;;12.60;;
29500;SDS011;16450;50.288;10.966;2022-12-08T01:07:16;20.67;;;12.17;;
29500;SDS011;16450;50.288;10.966;2022-12-08T01:10:17;21.57;;;13.27;;
29500;SDS011;16450;50.288;10.966;2022-12-08T01:13:17;22.20;;;12.83;;
29500;SDS011;16450;50.288;10.966;2022-12-08T01:16:19;20.70;;;12.60;;
29500;SDS011;16450;50.288;10.966;2022-12-08T01:19:25;24.43;;;11.97;;
29500;SDS011;16450;50.288;10.966;2022-12-08T01:22:26;20.77;;;13.00;;
29500;SDS011;16450;50.288;10.966;2022-12-08T01:25:27;25.47;;;13.33;;
29500;SDS011;16450;50.288;10.966;2022-12-08T01:28:28;23.40;;;13.67;;
29500;SDS011;16450;50.288;10.966;2022-12-08T01:31:29;31.13;;;16.60;;
29500;SDS011;16450;50.288;10.966;2022-12-08T01:34:30;23.93;;;14.53;;
29500;SDS011;16450;50.288;10.966;2022-12-08T01:37:31;22.60;;;14.53;;
29500;SDS011;16450;50.288;10.966;2022-12-08T01:40:31;23.97;;;14.07;;
29500;SDS011;16450;50.288;10.966;2022-12-08T01:47:07;23.93;;;13.93;;
29500;SDS011;16450;50.288;10.966;2022-12-08T01:50:09;25.23;;;14.47;;
29500;SDS011;16450;50.288;10.966;2022-12-08T01:53:16;24.63;;;14.40;;
29500;SDS011;16450;50.288;10.966;2022-12-08T01:56:27;21.87;;;13.83;;
29500;SDS011;16450;50.288;10.966;2022-12-08T01:59:34;26.40;;;13.83;;
29500;SDS011;16450;50.288;10.966;2022-12-08T02:02:58;23.83;;;14.43;;
29500;SDS011;16450;50.288;10.966;2022-12-08T02:06:01;24.33;;;14.50;;
29500;SDS011;16450;50.288;10.966;2022-12-08T02:09:03;25.63;;;15.17;;
29500;SDS011;16450;50.288;10.966;2022-12-08T02:12:05;24.87;;;14.60;;
29500;SDS011;16450;50.288;10.966;2022-12-08T02:15:06;25.03;;;14.47;;
29500;SDS011;16450;50.288;10.966;2022-12-08T02:18:17;29.17;;;15.87;;
29500;SDS011;16450;50.288;10.966;2022-12-08T02:35:33;29.47;;;15.37;;
29500;SDS011;16450;50.288;10.966;2022-12-08T02:39:04;29.30;;;16.63;;
29500;SDS011;16450;50.288;10.966;2022-12-08T02:42:30;29.40;;;16.63;;
29500;SDS011;16450;50.288;10.966;2022-12-08T02:45:47;28.40;;;17.00;;
29500;SDS011;16450;50.288;10.966;2022-12-08T02:48:54;26.13;;;15.70;;
29500;SDS011;16450;50.288;10.966;2022-12-08T02:55:23;28.43;;;17.20;;
29500;SDS011;16450;50.288;10.966;2022-12-08T02:58:42;29.33;;;16.90;;
29500;SDS011;16450;50.288;10.966;2022-12-08T03:02:06;31.37;;;18.23;;
29500;SDS011;16450;50.288;10.966;2022-12-08T03:09:03;28.97;;;16.30;;
29500;SDS011;16450;50.288;10.966;2022-12-08T03:12:19;33.53;;;18.60;;
29500;SDS011;16450;50.288;10.966;2022-12-08T03:15:39;31.43;;;17.67;;
29500;SDS011;16450;50.288;10.966;2022-12-08T03:18:44;33.33;;;19.03;;
29500;SDS011;16450;50.288;10.966;2022-12-08T03:21:52;32.97;;;17.93;;
29500;SDS011;16450;50.288;10.966;2022-12-08T03:25:01;31.93;;;18.33;;
29500;SDS011;16450;50.288;10.966;2022-12-08T03:28:02;31.77;;;17.77;;
29500;SDS011;16450;50.288;10.966;2022-12-08T03:31:05;34.13;;;18.67;;
29500;SDS011;16450;50.288;10.966;2022-12-08T03:34:09;32.07;;;17.50;;
29500;SDS011;16450;50.288;10.966;2022-12-08T03:37:11;29.93;;;16.57;;
29500;SDS011;16450;50.288;10.966;2022-12-08T03:40:13;31.40;;;17.90;;
29500;SDS011;16450;50.288;10.966;2022-12-08T03:43:16;30.73;;;17.73;;
29500;SDS011;16450;50.288;10.966;2022-12-08T03:46:17;30.00;;;17.33;;
29500;SDS011;16450;50.288;10.966;2022-12-08T03:49:19;32.37;;;17.47;;
29500;SDS011;16450;50.288;10.966;2022-12-08T03:52:20;31.60;;;16.97;;
29500;SDS011;16450;50.288;10.966;2022-12-08T03:55:20;31.57;;;18.07;;
29500;SDS011;16450;50.288;10.966;2022-12-08T03:58:21;31.87;;;17.43;;
29500;SDS011;16450;50.288;10.966;2022-12-08T04:01:21;36.30;;;18.03;;
29500;SDS011;16450;50.288;10.966;2022-12-08T04:04:22;34.87;;;18.00;;
29500;SDS011;16450;50.288;10.966;2022-12-08T04:07:23;34.30;;;19.17;;
29500;SDS011;16450;50.288;10.966;2022-12-08T04:10:24;31.73;;;18.33;;
29500;SDS011;16450;50.288;10.966;2022-12-08T04:13:24;30.47;;;17.53;;
29500;SDS011;16450;50.288;10.966;2022-12-08T04:16:25;32.60;;;18.23;;
29500;SDS011;16450;50.288;10.966;2022-12-08T04:19:26;32.47;;;17.33;;
29500;SDS011;16450;50.288;10.966;2022-12-08T04:22:27;30.77;;;17.87;;
29500;SDS011;16450;50.288;10.966;2022-12-08T04:25:28;30.60;;;17.97;;
29500;SDS011;16450;50.288;10.966;2022-12-08T04:28:29;35.47;;;18.70;;
29500;SDS011;16450;50.288;10.966;2022-12-08T04:31:29;34.97;;;19.20;;
29500;SDS011;16450;50.288;10.966;2022-12-08T04:34:30;33.03;;;18.97;;
29500;SDS011;16450;50.288;10.966;2022-12-08T04:37:31;32.67;;;18.13;;
29500;SDS011;16450;50.288;10.966;2022-12-08T04:40:31;34.60;;;19.87;;
29500;SDS011;16450;50.288;10.966;2022-12-08T04:43:32;31.93;;;18.30;;
29500;SDS011;16450;50.288;10.966;2022-12-08T04:46:33;33.93;;;19.17;;
29500;SDS011;16450;50.288;10.966;2022-12-08T04:49:33;34.63;;;19.30;;
29500;SDS011;16450;50.288;10.966;2022-12-08T04:52:34;32.07;;;18.37;;
29500;SDS011;16450;50.288;10.966;2022-12-08T04:55:38;32.03;;;18.17;;
29500;SDS011;16450;50.288;10.966;2022-12-08T04:58:41;33.07;;;18.27;;
29500;SDS011;16450;50.288;10.966;2022-12-08T05:01:42;33.10;;;18.70;;
29500;SDS011;16450;50.288;10.966;2022-12-08T05:04:42;35.33;;;19.07;;
29500;SDS011;16450;50.288;10.966;2022-12-08T05:07:43;34.00;;;19.03;;
29500;SDS011;16450;50.288;10.966;2022-12-08T05:10:44;32.83;;;18.70;;
29500;SDS011;16450;50.288;10.966;2022-12-08T05:13:44;34.60;;;18.23;;
29500;SDS011;16450;50.288;10.966;2022-12-08T05:16:45;29.60;;;17.27;;
29500;SDS011;16450;50.288;10.966;2022-12-08T05:19:47;34.20;;;19.20;;
29500;SDS011;16450;50.288;10.966;2022-12-08T05:22:48;32.57;;;18.30;;
29500;SDS011;16450;50.288;10.966;2022-12-08T05:25:49;33.53;;;18.40;;
29500;SDS011;16450;50.288;10.966;2022-12-08T05:28:49;32.17;;;18.23;;
29500;SDS011;16450;50.288;10.966;2022-12-08T05:31:50;33.93;;;18.33;;
29500;SDS011;16450;50.288;10.966;2022-12-08T05:34:51;34.50;;;17.83;;
29500;SDS011;16450;50.288;10.966;2022-12-08T05:37:52;34.63;;;18.73;;
29500;SDS011;16450;50.288;10.966;2022-12-08T05:40:52;35.37;;;17.90;;
29500;SDS011;16450;50.288;10.966;2022-12-08T05:43:53;34.83;;;19.23;;
29500;SDS011;16450;50.288;10.966;2022-12-08T05:46:54;32.90;;;18.50;;
29500;SDS011;16450;50.288;10.966;2022-12-08T05:49:54;33.30;;;18.90;;
29500;SDS011;16450;50.288;10.966;2022-12-08T05:52:55;33.67;;;18.30;;
29500;SDS011;16450;50.288;10.966;2022-12-08T05:55:56;30.70;;;17.00;;
29500;SDS011;16450;50.288;10.966;2022-12-08T05:58:56;34.17;;;18.53;;
29500;SDS011;16450;50.288;10.966;2022-12-08T06:01:57;36.90;;;19.07;;
29500;SDS011;16450;50.288;10.966;2022-12-08T06:04:58;38.50;;;19.33;;
29500;SDS011;16450;50.288;10.966;2022-12-08T06:07:59;34.70;;;18.90;;
29500;SDS011;16450;50.288;10.966;2022-12-08T06:10:59;36.13;;;18.97;;
29500;SDS011;16450;50.288;10.966;2022-12-08T06:14:01;35.27;;;18.27;;
29500;SDS011;16450;50.288;10.966;2022-12-08T06:17:02;34.93;;;19.03;;
29500;SDS011;16450;50.288;10.966;2022-12-08T06:20:03;34.80;;;18.30;;
29500;SDS011;16450;50.288;10.966;2022-12-08T06:23:04;35.93;;;19.23;;
29500;SDS011;16450;50.288;10.966;2022-12-08T06:26:06;33.10;;;19.03;;
29500;SDS011;16450;50.288;10.966;2022-12-08T06:29:12;34.80;;;18.43;;
29500;SDS011;16450;50.288;10.966;2022-12-08T06:32:12;37.37;;;19.43;;
29500;SDS011;16450;50.288;10.966;2022-12-08T06:35:13;33.63;;;17.93;;
29500;SDS011;16450;50.288;10.966;2022-12-08T06:38:14;34.93;;;18.73;;
29500;SDS011;16450;50.288;10.966;2022-12-08T06:41:14;35.27;;;17.93;;
29500;SDS011;16450;50.288;10.966;2022-12-08T06:44:15;31.73;;;18.50;;
29500;SDS011;16450;50.288;10.966;2022-12-08T06:47:15;32.00;;;18.57;;
29500;SDS011;16450;50.288;10.966;2022-12-08T06:50:16;34.63;;;18.63;;
29500;SDS011;16450;50.288;10.966;2022-12-08T06:53:17;32.47;;;18.67;;
29500;SDS011;16450;50.288;10.966;2022-12-08T06:56:18;33.10;;;17.47;;
29500;SDS011;16450;50.288;10.966;2022-12-08T06:59:19;32.93;;;17.87;;
29500;SDS011;16450;50.288;10.966;2022-12-08T07:02:20;36.33;;;18.53;;
29500;SDS011;16450;50.288;10.966;2022-12-08T07:05:20;31.87;;;17.00;;
29500;SDS011;16450;50.288;10.966;2022-12-08T07:08:21;34.10;;;18.20;;
29500;SDS011;16450;50.288;10.966;2022-12-08T07:11:22;36.03;;;18.77;;
29500;SDS011;16450;50.288;10.966;2022-12-08T07:14:22;33.30;;;18.83;;
29500;SDS011;16450;50.288;10.966;2022-12-08T07:17:23;39.07;;;19.60;;
29500;SDS011;16450;50.288;10.966;2022-12-08T07:20:24;35.47;;;19.70;;
29500;SDS011;16450;50.288;10.966;2022-12-08T07:23:25;34.77;;;19.37;;
29500;SDS011;16450;50.288;10.966;2022-12-08T07:26:25;33.37;;;17.70;;
29500;SDS011;16450;50.288;10.966;2022-12-08T07:29:35;38.37;;;19.57;;
29500;SDS011;16450;50.288;10.966;2022-12-08T07:32:36;33.17;;;18.33;;
29500;SDS011;16450;50.288;10.966;2022-12-08T07:35:37;33.50;;;18.43;;
29500;SDS011;16450;50.288;10.966;2022-12-08T07:38:38;34.00;;;18.67;;
29500;SDS011;16450;50.288;10.966;2022-12-08T07:41:39;32.60;;;18.53;;
29500;SDS011;16450;50.288;10.966;2022-12-08T07:44:39;36.73;;;19.17;;
29500;SDS011;16450;50.288;10.966;2022-12-08T07:47:40;32.40;;;17.13;;
29500;SDS011;16450;50.288;10.966;2022-12-08T07:50:41;32.07;;;17.00;;
29500;SDS011;16450;50.288;10.966;2022-12-08T07:53:43;33.00;;;17.87;;
29500;SDS011;16450;50.288;10.966;2022-12-08T07:56:44;32.20;;;17.80;;
29500;SDS011;16450;50.288;10.966;2022-12-08T07:59:45;30.30;;;17.07;;
29500;SDS011;16450;50.288;10.966;2022-12-08T08:02:46;33.30;;;17.37;;
29500;SDS011;16450;50.288;10.966;2022-12-08T08:05:47;32.03;;;16.87;;
29500;SDS011;16450;50.288;10.966;2022-12-08T08:08:49;32.07;;;17.13;;
29500;SDS011;16450;50.288;10.966;2022-12-08T08:11:50;30.57;;;16.97;;
29500;SDS011;16450;50.288;10.966;2022-12-08T08:14:50;28.97;;;16.97;;
29500;SDS011;16450;50.288;10.966;2022-12-08T08:17:51;30.77;;;16.63;;
29500;SDS011;16450;50.288;10.966;2022-12-08T08:20:53;31.07;;;16.43;;
29500;SDS011;16450;50.288;10.966;2022-12-08T08:23:53;31.70;;;15.80;;
29500;SDS011;16450;50.288;10.966;2022-12-08T08:26:54;29.87;;;16.63;;
29500;SDS011;16450;50.288;10.966;2022-12-08T08:29:55;30.83;;;15.63;;
29500;SDS011;16450;50.288;10.966;2022-12-08T08:32:55;28.10;;;14.57;;
29500;SDS011;16450;50.288;10.966;2022-12-08T08:35:56;30.10;;;15.03;;
29500;SDS011;16450;50.288;10.966;2022-12-08T08:38:57;28.43;;;15.90;;
29500;SDS011;16450;50.288;10.966;2022-12-08T08:41:57;28.93;;;14.80;;
29500;SDS011;16450;50.288;10.966;2022-12-08T08:44:58;29.80;;;15.70;;
29500;SDS011;16450;50.288;10.966;2022-12-08T08:47:59;24.90;;;14.00;;
29500;SDS011;16450;50.288;10.966;2022-12-08T08:51:05;26.93;;;15.93;;
29500;SDS011;16450;50.288;10.966;2022-12-08T08:54:10;26.37;;;14.53;;
29500;SDS011;16450;50.288;10.966;2022-12-08T08:57:11;25.53;;;15.20;;
29500;SDS011;16450;50.288;10.966;2022-12-08T09:00:12;25.07;;;14.83;;
29500;SDS011;16450;50.288;10.966;2022-12-08T09:03:13;25.67;;;14.33;;
29500;SDS011;16450;50.288;10.966;2022-12-08T09:06:29;28.83;;;16.10;;
29500;SDS011;16450;50.288;10.966;2022-12-08T09:09:30;26.63;;;14.20;;
29500;SDS011;16450;50.288;10.966;2022-12-08T09:12:30;26.47;;;14.70;;
29500;SDS011;16450;50.288;10.966;2022-12-08T09:15:31;30.37;;;15.53;;
29500;SDS011;16450;50.288;10.966;2022-12-08T09:18:32;27.20;;;15.57;;
29500;SDS011;16450;50.288;10.966;2022-12-08T09:21:33;24.47;;;14.73;;
29500;SDS011;16450;50.288;10.966;2022-12-08T09:24:34;26.27;;;14.03;;
29500;SDS011;16450;50.288;10.966;2022-12-08T09:27:34;24.53;;;14.87;;
29500;SDS011;16450;50.288;10.966;2022-12-08T09:30:35;23.37;;;13.57;;
29500;SDS011;16450;50.288;10.966;2022-12-08T09:33:36;25.00;;;14.10;;
29500;SDS011;16450;50.288;10.966;2022-12-08T09:36:36;25.73;;;14.43;;
29500;SDS011;16450;50.288;10.966;2022-12-08T09:39:37;26.53;;;14.43;;
29500;SDS011;16450;50.288;10.966;2022-12-08T09:42:43;23.87;;;13.83;;
29500;SDS011;16450;50.288;10.966;2022-12-08T09:45:54;24.40;;;13.07;;
29500;SDS011;16450;50.288;10.966;2022-12-08T09:48:57;23.37;;;14.23;;
29500;SDS011;16450;50.288;10.966;2022-12-08T09:51:59;23.03;;;13.67;;
29500;SDS011;16450;50.288;10.966;2022-12-08T09:55:02;22.10;;;13.50;;
29500;SDS011;16450;50.288;10.966;2022-12-08T09:58:12;23.27;;;13.03;;
29500;SDS011;16450;50.288;10.966;2022-12-08T10:01:21;22.77;;;13.40;;
29500;SDS011;16450;50.288;10.966;2022-12-08T10:07:51;25.60;;;13.33;;
29500;SDS011;16450;50.288;10.966;2022-12-08T10:11:20;21.97;;;12.97;;
29500;SDS011;16450;50.288;10.966;2022-12-08T10:14:30;19.77;;;11.80;;
29500;SDS011;16450;50.288;10.966;2022-12-08T10:17:44;22.00;;;13.17;;
29500;SDS011;16450;50.288;10.966;2022-12-08T10:20:52;20.20;;;12.30;;
29500;SDS011;16450;50.288;10.966;2022-12-08T10:24:30;22.17;;;12.20;;
29500;SDS011;16450;50.288;10.966;2022-12-08T10:27:36;19.97;;;11.90;;
29500;SDS011;16450;50.288;10.966;2022-12-08T10:30:37;22.13;;;12.20;;
29500;SDS011;16450;50.288;10.966;2022-12-08T10:33:37;20.23;;;11.90;;
29500;SDS011;16450;50.288;10.966;2022-12-08T10:39:48;22.57;;;12.77;;
29500;SDS011;16450;50.288;10.966;2022-12-08T10:43:02;22.67;;;12.40;;
29500;SDS011;16450;50.288;10.966;2022-12-08T10:46:12;22.07;;;12.47;;
29500;SDS011;16450;50.288;10.966;2022-12-08T10:49:23;19.07;;;11.47;;
29500;SDS011;16450;50.288;10.966;2022-12-08T10:52:26;22.50;;;12.40;;
29500;SDS011;16450;50.288;10.966;2022-12-08T10:55:27;20.00;;;11.80;;
29500;SDS011;16450;50.288;10.966;2022-12-08T10:58:33;19.33;;;11.67;;
29500;SDS011;16450;50.288;10.966;2022-12-08T11:01:39;19.17;;;10.97;;
29500;SDS011;16450;50.288;10.966;2022-12-08T11:04:41;19.80;;;11.67;;
29500;SDS011;16450;50.288;10.966;2022-12-08T11:07:46;21.00;;;12.17;;
29500;SDS011;16450;50.288;10.966;2022-12-08T11:10:51;19.70;;;10.70;;
29500;SDS011;16450;50.288;10.966;2022-12-08T11:13:52;20.23;;;11.73;;
29500;SDS011;16450;50.288;10.966;2022-12-08T11:17:06;23.20;;;13.47;;
29500;SDS011;16450;50.288;10.966;2022-12-08T11:23:20;18.40;;;11.30;;
29500;SDS011;16450;50.288;10.966;2022-12-08T11:26:25;16.77;;;10.40;;
29500;SDS011;16450;50.288;10.966;2022-12-08T11:29:33;18.20;;;10.40;;
29500;SDS011;16450;50.288;10.966;2022-12-08T11:32:34;17.30;;;10.30;;
29500;SDS011;16450;50.288;10.966;2022-12-08T11:35:39;17.63;;;10.73;;
29500;SDS011;16450;50.288;10.966;2022-12-08T11:38:45;15.43;;;10.27;;
29500;SDS011;16450;50.288;10.966;2022-12-08T11:41:47;16.47;;;9.97;;
29500;SDS011;16450;50.288;10.966;2022-12-08T11:44:56;15.97;;;9.63;;
29500;SDS011;16450;50.288;10.966;2022-12-08T11:48:17;16.67;;;9.13;;
29500;SDS011;16450;50.288;10.966;2022-12-08T11:54:44;16.43;;;9.40;;
29500;SDS011;16450;50.288;10.966;2022-12-08T11:58:03;14.03;;;8.77;;
29500;SDS011;16450;50.288;10.966;2022-12-08T12:01:22;18.30;;;9.90;;
29500;SDS011;16450;50.288;10.966;2022-12-08T12:04:28;15.17;;;8.83;;
29500;SDS011;16450;50.288;10.966;2022-12-08T12:20:58;14.60;;;8.80;;
29500;SDS011;16450;50.288;10.966;2022-12-08T12:24:07;15.60;;;8.77;;
29500;SDS011;16450;50.288;10.966;2022-12-08T12:27:22;15.90;;;9.03;;
29500;SDS011;16450;50.288;10.966;2022-12-08T12:30:32;14.53;;;8.47;;
29500;SDS011;16450;50.288;10.966;2022-12-08T12:33:50;16.87;;;9.97;;
29500;SDS011;16450;50.288;10.966;2022-12-08T12:36:56;15.83;;;9.60;;
29500;SDS011;16450;50.288;10.966;2022-12-08T12:43:27;14.63;;;9.20;;
29500;SDS011;16450;50.288;10.966;2022-12-08T12:49:48;13.87;;;7.87;;
29500;SDS011;16450;50.288;10.966;2022-12-08T12:52:49;16.10;;;8.90;;
29500;SDS011;16450;50.288;10.966;2022-12-08T12:56:08;17.97;;;9.00;;
29500;SDS011;16450;50.288;10.966;2022-12-08T12:59:39;13.50;;;7.77;;
29500;SDS011;16450;50.288;10.966;2022-12-08T13:02:46;13.23;;;7.50;;
29500;SDS011;16450;50.288;10.966;2022-12-08T13:05:49;16.30;;;8.47;;
29500;SDS011;16450;50.288;10.966;2022-12-08T13:08:52;14.10;;;8.10;;
29500;SDS011;16450;50.288;10.966;2022-12-08T13:11:56;15.90;;;9.23;;
29500;SDS011;16450;50.288;10.966;2022-12-08T13:15:01;13.67;;;8.77;;
29500;SDS011;16450;50.288;10.966;2022-12-08T13:18:05;13.43;;;7.77;;
29500;SDS011;16450;50.288;10.966;2022-12-08T13:21:17;12.57;;;8.07;;
29500;SDS011;16450;50.288;10.966;2022-12-08T13:27:50;14.83;;;8.93;;
29500;SDS011;16450;50.288;10.966;2022-12-08T13:30:59;14.67;;;8.37;;
29500;SDS011;16450;50.288;10.966;2022-12-08T13:34:44;16.13;;;8.17;;
29500;SDS011;16450;50.288;10.966;2022-12-08T13:37:32;13.50;;;8.67;;
29500;SDS011;16450;50.288;10.966;2022-12-08T13:40:39;15.13;;;8.70;;
29500;SDS011;16450;50.288;10.966;2022-12-08T13:43:47;14.57;;;8.40;;
29500;SDS011;16450;50.288;10.966;2022-12-08T13:46:54;15.33;;;9.23;;
29500;SDS011;16450;50.288;10.966;2022-12-08T13:50:05;15.83;;;9.10;;
29500;SDS011;16450;50.288;10.966;2022-12-08T13:53:17;13.33;;;8.17;;
29500;SDS011;16450;50.288;10.966;2022-12-08T13:56:22;15.27;;;9.03;;
29500;SDS011;16450;50.288;10.966;2022-12-08T13:59:25;13.00;;;8.17;;
29500;SDS011;16450;50.288;10.966;2022-12-08T14:02:34;14.73;;;8.70;;
29500;SDS011;16450;50.288;10.966;2022-12-08T14:05:37;12.63;;;8.10;;
29500;SDS011;16450;50.288;10.966;2022-12-08T14:08:40;12.10;;;7.83;;
29500;SDS011;16450;50.288;10.966;2022-12-08T14:11:44;15.47;;;8.70;;
29500;SDS011;16450;50.288;10.966;2022-12-08T14:14:52;13.53;;;8.37;;
29500;SDS011;16450;50.288;10.966;2022-12-08T14:17:57;14.47;;;8.93;;
29500;SDS011;16450;50.288;10.966;2022-12-08T14:20:59;14.43;;;9.53;;
29500;SDS011;16450;50.288;10.966;2022-12-08T14:24:00;13.63;;;8.50;;
29500;SDS011;16450;50.288;10.966;2022-12-08T14:27:03;12.83;;;8.57;;
29500;SDS011;16450;50.288;10.966;2022-12-08T14:30:12;12.10;;;8.10;;
29500;SDS011;16450;50.288;10.966;2022-12-08T14:33:19;11.77;;;7.70;;
29500;SDS011;16450;50.288;10.966;2022-12-08T14:36:21;13.03;;;8.10;;
29500;SDS011;16450;50.288;10.966;2022-12-08T14:39:21;13.30;;;8.00;;
29500;SDS011;16450;50.288;10.966;2022-12-08T14:42:23;13.73;;;8.70;;
29500;SDS011;16450;50.288;10.966;2022-12-08T14:45:26;14.43;;;8.80;;
29500;SDS011;16450;50.288;10.966;2022-12-08T14:51:32;15.03;;;7.97;;
29500;SDS011;16450;50.288;10.966;2022-12-08T14:54:33;14.20;;;9.33;;
29500;SDS011;16450;50.288;10.966;2022-12-08T14:57:33;15.17;;;8.50;;
29500;SDS011;16450;50.288;10.966;2022-12-08T15:00:35;14.27;;;8.47;;
29500;SDS011;16450;50.288;10.966;2022-12-08T15:03:35;14.80;;;8.87;;
29500;SDS011;16450;50.288;10.966;2022-12-08T15:06:36;13.83;;;9.20;;
29500;SDS011;16450;50.288;10.966;2022-12-08T15:10:16;17.10;;;10.33;;
29500;SDS011;16450;50.288;10.966;2022-12-08T15:13:20;18.80;;;11.17;;
29500;SDS011;16450;50.288;10.966;2022-12-08T15:19:32;17.33;;;10.20;;
29500;SDS011;16450;50.288;10.966;2022-12-08T15:22:33;17.00;;;9.57;;
29500;SDS011;16450;50.288;10.966;2022-12-08T15:25:33;14.87;;;9.60;;
29500;SDS011;16450;50.288;10.966;2022-12-08T15:28:34;16.53;;;10.37;;
29500;SDS011;16450;50.288;10.966;2022-12-08T15:31:35;17.17;;;11.10;;
29500;SDS011;16450;50.288;10.966;2022-12-08T15:34:35;19.57;;;11.60;;
29500;SDS011;16450;50.288;10.966;2022-12-08T15:37:36;14.77;;;10.37;;
29500;SDS011;16450;50.288;10.966;2022-12-08T15:40:37;18.60;;;11.07;;
29500;SDS011;16450;50.288;10.966;2022-12-08T15:43:37;19.03;;;10.97;;
29500;SDS011;16450;50.288;10.966;2022-12-08T15:46:38;19.07;;;12.23;;
29500;SDS011;16450;50.288;10.966;2022-12-08T15:49:39;17.40;;;10.70;;
29500;SDS011;16450;50.288;10.966;2022-12-08T15:52:39;16.17;;;9.47;;
29500;SDS011;16450;50.288;10.966;2022-12-08T15:55:41;14.37;;;9.03;;
29500;SDS011;16450;50.288;10.966;2022-12-08T15:58:42;21.93;;;11.23;;
29500;SDS011;16450;50.288;10.966;2022-12-08T16:01:43;21.63;;;11.23;;
29500;SDS011;16450;50.288;10.966;2022-12-08T16:04:45;21.10;;;11.17;;
29500;SDS011;16450;50.288;10.966;2022-12-08T16:07:46;19.90;;;11.40;;
29500;SDS011;16450;50.288;10.966;2022-12-08T16:10:47;19.90;;;12.33;;
29500;SDS011;16450;50.288;10.966;2022-12-08T16:13:48;18.30;;;10.83;;
29500;SDS011;16450;50.288;10.966;2022-12-08T16:16:52;18.93;;;10.80;;
29500;SDS011;16450;50.288;10.966;2022-12-08T16:19:53;18.87;;;11.00;;
29500;SDS011;16450;50.288;10.966;2022-12-08T16:22:54;17.33;;;11.30;;
29500;SDS011;16450;50.288;10.966;2022-12-08T16:25:54;21.83;;;12.43;;
29500;SDS011;16450;50.288;10.966;2022-12-08T16:28:55;23.00;;;12.43;;
29500;SDS011;16450;50.288;10.966;2022-12-08T16:31:56;23.13;;;13.73;;
29500;SDS011;16450;50.288;10.966;2022-12-08T16:34:56;29.27;;;15.43;;
29500;SDS011;16450;50.288;10.966;2022-12-08T16:37:57;25.43;;;15.20;;
29500;SDS011;16450;50.288;10.966;2022-12-08T16:40:58;25.87;;;15.27;;
29500;SDS011;16450;50.288;10.966;2022-12-08T16:44:17;27.97;;;14.40;;
29500;SDS011;16450;50.288;10.966;2022-12-08T16:47:18;25.70;;;14.33;;
29500;SDS011;16450;50.288;10.966;2022-12-08T16:53:23;27.00;;;15.13;;
29500;SDS011;16450;50.288;10.966;2022-12-08T16:56:24;26.37;;;15.13;;
29500;SDS011;16450;50.288;10.966;2022-12-08T16:59:25;25.63;;;14.43;;
29500;SDS011;16450;50.288;10.966;2022-12-08T17:02:26;21.80;;;12.07;;
29500;SDS011;16450;50.288;10.966;2022-12-08T17:05:26;22.03;;;13.27;;
29500;SDS011;16450;50.288;10.966;2022-12-08T17:08:27;20.33;;;12.90;;
29500;SDS011;16450;50.288;10.966;2022-12-08T17:11:28;22.60;;;11.67;;
29500;SDS011;16450;50.288;10.966;2022-12-08T17:14:34;19.83;;;11.43;;
29500;SDS011;16450;50.288;10.966;2022-12-08T17:17:35;19.60;;;12.07;;
29500;SDS011;16450;50.288;10.966;2022-12-08T17:20:37;17.37;;;11.33;;
29500;SDS011;16450;50.288;10.966;2022-12-08T17:23:39;18.57;;;11.40;;
29500;SDS011;16450;50.288;10.966;2022-12-08T17:26:40;19.53;;;11.23;;
29500;SDS011;16450;50.288;10.966;2022-12-08T17:29:41;21.03;;;12.17;;
29500;SDS011;16450;50.288;10.966;2022-12-08T17:32:42;19.63;;;12.40;;
29500;SDS011;16450;50.288;10.966;2022-12-08T17:35:50;20.57;;;12.33;;
29500;SDS011;16450;50.288;10.966;2022-12-08T17:38:51;22.67;;;13.17;;
29500;SDS011;16450;50.288;10.966;2022-12-08T17:41:53;21.13;;;11.70;;
29500;SDS011;16450;50.288;10.966;2022-12-08T17:44:53;22.33;;;13.33;;
29500;SDS011;16450;50.288;10.966;2022-12-08T17:47:57;21.80;;;12.67;;
29500;SDS011;16450;50.288;10.966;2022-12-08T17:50:58;20.00;;;12.23;;
29500;SDS011;16450;50.288;10.966;2022-12-08T17:53:59;21.63;;;13.47;;
29500;SDS011;16450;50.288;10.966;2022-12-08T17:56:59;21.43;;;12.60;;
29500;SDS011;16450;50.288;10.966;2022-12-08T18:00:00;21.13;;;12.43;;
29500;SDS011;16450;50.288;10.966;2022-12-08T18:03:01;22.90;;;13.33;;
29500;SDS011;16450;50.288;10.966;2022-12-08T18:06:05;23.23;;;13.13;;
29500;SDS011;16450;50.288;10.966;2022-12-08T18:09:07;22.33;;;13.00;;
29500;SDS011;16450;50.288;10.966;2022-12-08T18:12:08;30.13;;;18.83;;
29500;SDS011;16450;50.288;10.966;2022-12-08T18:15:10;29.07;;;19.47;;
29500;SDS011;16450;50.288;10.966;2022-12-08T18:18:14;23.97;;;15.17;;
29500;SDS011;16450;50.288;10.966;2022-12-08T18:21:14;21.00;;;13.20;;
29500;SDS011;16450;50.288;10.966;2022-12-08T18:24:17;23.60;;;13.93;;
29500;SDS011;16450;50.288;10.966;2022-12-08T18:27:20;25.10;;;15.13;;
29500;SDS011;16450;50.288;10.966;2022-12-08T18:30:22;23.63;;;14.53;;
29500;SDS011;16450;50.288;10.966;2022-12-08T18:33:23;26.40;;;14.27;;
29500;SDS011;16450;50.288;10.966;2022-12-08T18:36:23;31.23;;;15.30;;
29500;SDS011;16450;50.288;10.966;2022-12-08T18:39:29;29.20;;;15.90;;
29500;SDS011;16450;50.288;10.966;2022-12-08T18:42:30;24.83;;;14.80;;
29500;SDS011;16450;50.288;10.966;2022-12-08T18:45:32;26.70;;;14.47;;
29500;SDS011;16450;50.288;10.966;2022-12-08T18:48:36;25.93;;;15.07;;
29500;SDS011;16450;50.288;10.966;2022-12-08T18:51:38;30.20;;;16.30;;